createdAt,value
2023-07-03T00:01:53.538Z,20.79
2023-07-03T00:04:24.176Z,20.76
2023-07-03T00:06:54.557Z,20.73
2023-07-03T00:09:24.268Z,20.70
2023-07-03T00:11:54.391Z,20.68
2023-07-03T00:14:24.503Z,20.62
2023-07-03T00:16:56.385Z,20.60
2023-07-03T00:19:27.875Z,20.57
2023-07-03T00:22:01.158Z,20.53
2023-07-03T00:24:32.960Z,20.50
2023-07-03T00:27:03.081Z,20.49
2023-07-03T00:29:34.636Z,20.47
2023-07-03T00:32:03.382Z,20.46
2023-07-03T00:34:34.057Z,20.44
2023-07-03T00:37:07.837Z,20.42
2023-07-03T00:39:37.976Z,20.41
2023-07-03T00:42:09.784Z,20.40
2023-07-03T00:44:39.846Z,20.38
2023-07-03T00:47:11.859Z,20.37
2023-07-03T00:49:40.615Z,20.35
2023-07-03T00:52:12.568Z,20.32
2023-07-03T00:54:43.191Z,20.31
2023-07-03T00:57:15.350Z,20.28
2023-07-03T00:59:46.495Z,20.28
2023-07-03T01:02:21.294Z,20.26
2023-07-03T01:04:57.067Z,20.24
2023-07-03T01:07:31.189Z,20.22
2023-07-03T01:10:04.809Z,20.19
2023-07-03T01:12:38.544Z,20.17
2023-07-03T01:15:14.799Z,20.15
2023-07-03T01:17:48.078Z,20.13
2023-07-03T01:20:20.456Z,20.12
2023-07-03T01:23:00.374Z,20.09
2023-07-03T01:25:32.483Z,20.08
2023-07-03T01:28:04.714Z,20.06
2023-07-03T01:30:36.899Z,20.05
2023-07-03T01:33:08.459Z,20.04
2023-07-03T01:35:40.157Z,20.01
2023-07-03T01:38:11.241Z,19.98
2023-07-03T01:40:41.416Z,19.95
2023-07-03T01:43:13.320Z,19.93
2023-07-03T01:45:42.164Z,19.90
2023-07-03T01:48:11.955Z,19.88
2023-07-03T01:50:43.753Z,19.85
2023-07-03T01:53:19.201Z,19.82
2023-07-03T01:55:57.286Z,19.81
2023-07-03T01:58:33.367Z,19.77
2023-07-03T02:01:06.215Z,19.75
2023-07-03T02:03:41.261Z,19.74
2023-07-03T02:06:16.799Z,19.71
2023-07-03T02:08:48.816Z,19.68
2023-07-03T02:11:21.716Z,19.67
2023-07-03T02:13:54.358Z,19.66
2023-07-03T02:16:30.188Z,19.63
2023-07-03T02:19:01.128Z,19.62
2023-07-03T02:21:31.045Z,19.61
2023-07-03T02:24:01.789Z,19.59
2023-07-03T02:26:31.695Z,19.59
2023-07-03T02:29:02.029Z,19.56
2023-07-03T02:31:32.753Z,19.54
2023-07-03T02:34:02.458Z,19.53
2023-07-03T02:36:37.503Z,19.52
2023-07-03T02:39:09.869Z,19.52
2023-07-03T02:41:39.769Z,19.52
2023-07-03T02:44:10.922Z,19.53
2023-07-03T02:46:42.828Z,19.53
2023-07-03T02:49:12.934Z,19.53
2023-07-03T02:51:43.738Z,19.50
2023-07-03T02:54:14.057Z,19.48
2023-07-03T02:56:44.584Z,19.49
2023-07-03T02:59:15.531Z,19.49
2023-07-03T03:01:45.847Z,19.49
2023-07-03T03:04:16.860Z,19.51
2023-07-03T03:06:47.306Z,19.52
2023-07-03T03:09:17.459Z,19.53
2023-07-03T03:11:47.543Z,19.53
2023-07-03T03:14:17.351Z,19.54
2023-07-03T03:16:47.434Z,19.54
2023-07-03T03:19:17.828Z,19.57
2023-07-03T03:21:50.480Z,19.58
2023-07-03T03:24:20.941Z,19.60
2023-07-03T03:26:51.537Z,19.60
2023-07-03T03:29:21.574Z,19.63
2023-07-03T03:31:51.774Z,19.62
2023-07-03T03:34:21.694Z,19.63
2023-07-03T03:36:51.810Z,19.66
2023-07-03T03:39:21.922Z,19.68
2023-07-03T03:41:52.046Z,19.69
2023-07-03T03:44:22.164Z,19.70
2023-07-03T03:46:54.343Z,19.71
2023-07-03T03:49:25.677Z,19.74
2023-07-03T03:51:56.612Z,19.75
2023-07-03T03:54:28.390Z,19.78
2023-07-03T03:56:58.488Z,19.81
2023-07-03T03:59:29.018Z,19.82
2023-07-03T04:01:59.185Z,19.84
2023-07-03T04:04:29.800Z,19.86
2023-07-03T04:07:00.393Z,19.90
2023-07-03T04:09:30.517Z,19.91
2023-07-03T04:12:01.123Z,19.91
2023-07-03T04:14:31.366Z,19.93
2023-07-03T04:17:02.344Z,19.93
2023-07-03T04:19:32.624Z,19.96
2023-07-03T04:22:02.753Z,19.99
2023-07-03T04:24:32.857Z,20.02
2023-07-03T04:27:04.204Z,20.06
2023-07-03T04:29:34.324Z,20.11
2023-07-03T04:32:04.729Z,20.16
2023-07-03T04:34:34.990Z,20.18
2023-07-03T04:37:09.152Z,20.20
2023-07-03T04:39:39.104Z,20.23
2023-07-03T04:42:14.048Z,20.28
2023-07-03T04:44:44.125Z,20.36
2023-07-03T04:47:16.845Z,20.43
2023-07-03T04:49:49.206Z,20.51
2023-07-03T04:52:20.323Z,20.60
2023-07-03T04:54:50.267Z,20.71
2023-07-03T04:57:20.166Z,20.80
2023-07-03T04:59:50.628Z,20.89
2023-07-03T05:02:21.663Z,21.01
2023-07-03T05:04:52.003Z,21.14
2023-07-03T05:07:23.724Z,21.24
2023-07-03T05:09:54.454Z,21.39
2023-07-03T05:12:24.240Z,21.52
2023-07-03T05:14:55.712Z,21.65
2023-07-03T05:17:26.047Z,21.78
2023-07-03T05:19:56.978Z,21.91
2023-07-03T05:22:27.509Z,22.05
2023-07-03T05:24:57.629Z,22.19
2023-07-03T05:27:27.741Z,22.31
2023-07-03T05:29:58.654Z,22.44
2023-07-03T05:32:28.695Z,22.56
2023-07-03T05:34:58.910Z,22.70
2023-07-03T05:37:28.873Z,22.83
2023-07-03T05:39:58.951Z,22.97
2023-07-03T05:42:29.278Z,23.10
2023-07-03T05:44:59.804Z,23.25
2023-07-03T05:47:31.163Z,23.39
2023-07-03T05:50:01.267Z,23.53
2023-07-03T05:52:32.196Z,23.65
2023-07-03T05:55:02.306Z,23.76
2023-07-03T05:57:32.617Z,23.90
2023-07-03T06:00:06.372Z,24.05
2023-07-03T06:02:44.091Z,24.20
2023-07-03T06:05:16.310Z,24.32
2023-07-03T06:07:46.640Z,24.43
2023-07-03T06:10:16.571Z,24.57
2023-07-03T06:12:46.462Z,24.65
2023-07-03T06:15:17.004Z,24.78
2023-07-03T06:17:47.328Z,24.92
2023-07-03T06:20:17.504Z,25.06
2023-07-03T06:22:47.264Z,25.18
2023-07-03T06:25:17.463Z,25.25
2023-07-03T06:27:47.785Z,25.39
2023-07-03T06:30:17.601Z,25.52
2023-07-03T06:32:47.437Z,25.67
2023-07-03T06:35:18.959Z,25.77
2023-07-03T06:37:49.278Z,25.88
2023-07-03T06:40:20.011Z,26.03
2023-07-03T06:42:49.666Z,26.15
2023-07-03T06:45:22.294Z,26.28
2023-07-03T06:47:52.758Z,26.41
2023-07-03T06:50:22.774Z,26.53
2023-07-03T06:52:52.858Z,26.69
2023-07-03T06:55:22.984Z,26.83
2023-07-03T06:57:52.894Z,26.96
2023-07-03T07:00:24.089Z,27.11
2023-07-03T07:02:54.436Z,27.23
2023-07-03T07:05:24.558Z,27.37
2023-07-03T07:07:54.730Z,27.52
2023-07-03T07:10:25.296Z,27.65
2023-07-03T07:12:55.404Z,27.77
2023-07-03T07:15:25.571Z,27.90
2023-07-03T07:17:55.761Z,28.04
2023-07-03T07:20:25.528Z,28.14
2023-07-03T07:22:55.239Z,28.27
2023-07-03T07:25:25.153Z,28.36
2023-07-03T07:27:55.136Z,28.42
2023-07-03T07:30:25.103Z,28.50
2023-07-03T07:32:55.802Z,28.61
2023-07-03T07:35:25.903Z,28.71
2023-07-03T07:37:55.739Z,28.80
2023-07-03T07:40:26.845Z,28.90
2023-07-03T07:42:56.668Z,28.98
2023-07-03T07:45:26.354Z,29.07
2023-07-03T07:47:56.763Z,29.16
2023-07-03T07:50:28.806Z,29.25
2023-07-03T07:53:00.602Z,29.34
2023-07-03T07:55:30.655Z,29.44
2023-07-03T07:58:00.965Z,29.52
2023-07-03T08:00:30.977Z,29.64
2023-07-03T08:03:01.247Z,29.74
2023-07-03T08:05:32.130Z,29.83
2023-07-03T08:08:02.294Z,29.93
2023-07-03T08:10:32.188Z,30.03
2023-07-03T08:13:02.595Z,30.14
2023-07-03T08:15:32.500Z,30.25
2023-07-03T08:18:03.069Z,30.35
2023-07-03T08:20:32.874Z,30.47
2023-07-03T08:23:02.911Z,30.54
2023-07-03T08:25:32.993Z,30.66
2023-07-03T08:28:02.915Z,30.77
2023-07-03T08:30:33.221Z,30.87
2023-07-03T08:33:03.727Z,30.97
2023-07-03T08:38:05.441Z,31.16
2023-07-03T08:40:35.479Z,31.29
2023-07-03T08:43:07.448Z,31.42
2023-07-03T08:45:39.313Z,31.54
2023-07-03T08:48:15.395Z,31.65
2023-07-03T08:50:47.689Z,31.75
2023-07-03T08:53:20.873Z,31.87
2023-07-03T08:55:55.661Z,31.99
2023-07-03T08:58:26.235Z,32.09
2023-07-03T09:01:03.685Z,32.19
2023-07-03T09:03:42.756Z,32.31
2023-07-03T09:06:19.523Z,32.42
2023-07-03T09:09:01.519Z,32.51
2023-07-03T09:11:36.713Z,32.62
2023-07-03T09:14:12.619Z,32.75
2023-07-03T09:16:45.826Z,32.86
2023-07-03T09:19:21.666Z,33.02
2023-07-03T09:21:55.687Z,33.12
2023-07-03T09:24:30.981Z,33.24
2023-07-03T09:27:10.381Z,33.30
2023-07-03T09:29:42.631Z,33.36
2023-07-03T09:32:23.137Z,33.46
2023-07-03T09:35:06.427Z,33.55
2023-07-03T09:37:38.482Z,33.62
2023-07-03T09:40:14.496Z,33.72
2023-07-03T09:42:45.100Z,33.83
2023-07-03T09:45:18.159Z,33.90
2023-07-03T09:47:54.070Z,33.97
2023-07-03T09:50:29.976Z,34.00
2023-07-03T09:53:08.539Z,34.05
2023-07-03T09:55:39.931Z,34.14
2023-07-03T09:58:15.929Z,34.21
2023-07-03T10:00:49.584Z,34.24
2023-07-03T10:08:45.803Z,34.38
2023-07-03T10:11:23.397Z,34.42
2023-07-03T10:13:54.581Z,34.51
2023-07-03T10:16:27.159Z,34.59
2023-07-03T10:18:59.286Z,34.67
2023-07-03T10:21:31.297Z,34.74
2023-07-03T10:24:02.433Z,34.76
2023-07-03T10:26:40.959Z,34.78
2023-07-03T10:29:20.046Z,34.75
2023-07-03T10:31:53.458Z,34.65
2023-07-03T10:34:28.512Z,34.56
2023-07-03T10:37:02.255Z,34.52
2023-07-03T10:39:42.055Z,34.45
2023-07-03T10:42:20.138Z,34.35
2023-07-03T10:44:57.622Z,34.23
2023-07-03T10:47:39.509Z,34.13
2023-07-03T10:50:12.047Z,34.04
2023-07-03T10:52:48.300Z,33.91
2023-07-03T10:55:25.467Z,33.78
2023-07-03T10:58:02.898Z,33.66
2023-07-03T11:00:40.391Z,33.57
2023-07-03T11:03:21.275Z,33.48
2023-07-03T11:05:57.757Z,33.48
2023-07-03T11:08:37.134Z,33.50
2023-07-03T11:11:15.445Z,33.57
2023-07-03T11:13:52.486Z,33.65
2023-07-03T11:16:29.966Z,33.76
2023-07-03T11:24:32.141Z,34.19
2023-07-03T11:29:44.836Z,34.43
2023-07-03T11:32:17.148Z,34.56
2023-07-03T11:40:27.472Z,34.90
2023-07-03T11:46:21.869Z,34.92
2023-07-03T11:48:57.918Z,34.92
2023-07-03T11:51:36.660Z,34.91
2023-07-03T11:54:19.658Z,34.87
2023-07-03T11:57:03.039Z,34.83
2023-07-03T11:59:38.760Z,34.77
2023-07-03T12:02:44.405Z,34.69
2023-07-03T12:05:54.184Z,34.59
2023-07-03T12:08:42.858Z,34.47
2023-07-03T12:11:15.050Z,34.40
2023-07-03T12:13:54.287Z,34.31
2023-07-03T12:16:28.408Z,34.23
2023-07-03T12:19:05.051Z,34.14
2023-07-03T12:21:46.854Z,34.04
2023-07-03T12:24:22.769Z,33.91
2023-07-03T12:26:55.492Z,33.85
2023-07-03T12:29:25.182Z,33.82
2023-07-03T12:32:05.862Z,33.79
2023-07-03T12:34:37.921Z,33.75
2023-07-03T12:37:15.390Z,33.72
2023-07-03T12:39:46.322Z,33.67
2023-07-03T12:42:19.876Z,33.65
2023-07-03T12:44:50.260Z,33.64
2023-07-03T12:47:22.253Z,33.72
2023-07-03T12:49:56.491Z,33.82
2023-07-03T12:52:27.478Z,33.87
2023-07-03T12:55:14.065Z,33.94
2023-07-03T12:57:46.050Z,33.99
2023-07-03T13:00:25.993Z,34.06
2023-07-03T13:03:00.639Z,34.15
2023-07-03T13:05:34.192Z,34.28
2023-07-03T13:08:07.741Z,34.34
2023-07-03T13:10:38.131Z,34.40
2023-07-03T13:13:10.889Z,34.45
2023-07-03T13:15:43.284Z,34.49
2023-07-03T13:18:20.579Z,34.56
2023-07-03T13:20:59.539Z,34.60
2023-07-03T13:23:32.454Z,34.61
2023-07-03T13:26:04.398Z,34.55
2023-07-03T13:28:36.700Z,34.53
2023-07-03T13:31:12.543Z,34.32
2023-07-03T13:33:44.662Z,34.06
2023-07-03T13:36:27.093Z,33.91
2023-07-03T13:39:07.913Z,33.71
2023-07-03T13:41:37.543Z,33.45
2023-07-03T13:44:09.666Z,33.18
2023-07-03T13:46:40.585Z,33.03
2023-07-03T13:49:11.097Z,32.94
2023-07-03T13:51:42.697Z,32.84
2023-07-03T13:54:13.287Z,32.77
2023-07-03T13:56:44.172Z,32.59
2023-07-03T13:59:14.436Z,32.39
2023-07-03T14:01:45.279Z,32.22
2023-07-03T14:04:15.241Z,32.08
2023-07-03T14:06:46.114Z,32.00
2023-07-03T14:09:16.195Z,31.96
2023-07-03T14:11:46.521Z,31.85
2023-07-03T14:14:16.222Z,31.82
2023-07-03T14:16:46.552Z,31.78
2023-07-03T14:19:16.875Z,31.78
2023-07-03T14:21:46.792Z,31.69
2023-07-03T14:24:17.112Z,31.73
2023-07-03T14:26:46.818Z,31.80
2023-07-03T14:29:17.348Z,31.83
2023-07-03T14:31:49.358Z,31.78
2023-07-03T14:34:20.184Z,31.78
2023-07-03T14:36:50.172Z,31.82
2023-07-03T14:39:20.282Z,31.85
2023-07-03T14:41:50.602Z,31.91
2023-07-03T14:44:20.461Z,31.95
2023-07-03T14:46:50.637Z,31.98
2023-07-03T14:49:20.557Z,31.98
2023-07-03T14:51:50.874Z,32.02
2023-07-03T14:54:23.194Z,32.06
2023-07-03T14:56:53.364Z,32.09
2023-07-03T14:59:23.497Z,32.10
2023-07-03T15:01:53.265Z,32.10
2023-07-03T15:04:23.228Z,32.09
2023-07-03T15:06:54.054Z,32.07
2023-07-03T15:09:25.192Z,32.04
2023-07-03T15:11:55.511Z,32.02
2023-07-03T15:14:25.777Z,32.00
2023-07-03T15:16:55.689Z,32.01
2023-07-03T15:19:26.077Z,32.00
2023-07-03T15:21:56.396Z,31.94
2023-07-03T15:24:27.068Z,31.95
2023-07-03T15:26:57.387Z,31.91
2023-07-03T15:29:28.053Z,31.90
2023-07-03T15:31:57.517Z,31.94
2023-07-03T15:34:28.208Z,31.90
2023-07-03T15:36:58.131Z,31.89
2023-07-03T15:39:28.262Z,31.86
2023-07-03T15:41:58.566Z,31.83
2023-07-03T15:44:28.595Z,31.81
2023-07-03T15:46:58.666Z,31.80
2023-07-03T15:49:31.657Z,31.80
2023-07-03T15:52:02.736Z,31.77
2023-07-03T15:54:35.788Z,31.73
2023-07-03T15:57:08.212Z,31.72
2023-07-03T15:59:38.208Z,31.69
2023-07-03T16:02:08.821Z,31.68
2023-07-03T16:04:38.924Z,31.69
2023-07-03T16:07:09.185Z,31.68
2023-07-03T16:09:39.295Z,31.67
2023-07-03T16:12:10.388Z,31.69
2023-07-03T16:14:39.127Z,31.68
2023-07-03T16:17:09.519Z,31.67
2023-07-03T16:19:40.185Z,31.70
2023-07-03T16:22:10.298Z,31.72
2023-07-03T16:24:39.810Z,31.72
2023-07-03T16:27:09.928Z,31.72
2023-07-03T16:29:43.083Z,31.74
2023-07-03T16:32:13.441Z,31.74
2023-07-03T16:34:43.237Z,31.74
2023-07-03T16:37:13.272Z,31.73
2023-07-03T16:39:43.187Z,31.73
2023-07-03T16:42:13.125Z,31.72
2023-07-03T16:44:43.215Z,31.71
2023-07-03T16:47:13.194Z,31.70
2023-07-03T16:49:43.662Z,31.68
2023-07-03T16:52:15.006Z,31.64
2023-07-03T16:54:45.255Z,31.63
2023-07-03T16:57:15.042Z,31.58
2023-07-03T16:59:45.772Z,31.52
2023-07-03T17:02:16.215Z,31.41
2023-07-03T17:04:46.103Z,31.28
2023-07-03T17:07:16.126Z,31.21
2023-07-03T17:09:46.457Z,31.09
2023-07-03T17:12:16.372Z,30.98
2023-07-03T17:14:46.059Z,30.87
2023-07-03T17:17:17.679Z,30.78
2023-07-03T17:19:47.957Z,30.71
2023-07-03T17:22:17.662Z,30.61
2023-07-03T17:24:47.935Z,30.50
2023-07-03T17:27:17.905Z,30.44
2023-07-03T17:29:48.224Z,30.37
2023-07-03T17:32:18.143Z,30.32
2023-07-03T17:34:48.264Z,30.27
2023-07-03T17:37:18.582Z,30.22
2023-07-03T17:39:48.906Z,30.19
2023-07-03T17:42:19.148Z,30.13
2023-07-03T17:44:49.146Z,30.08
2023-07-03T17:47:19.682Z,30.04
2023-07-03T17:49:50.004Z,29.98
2023-07-03T17:52:20.109Z,29.92
2023-07-03T17:54:50.232Z,29.87
2023-07-03T17:57:20.484Z,29.81
2023-07-03T17:59:50.588Z,29.75
2023-07-03T18:02:20.599Z,29.66
2023-07-03T18:04:50.479Z,29.54
2023-07-03T18:07:21.361Z,29.42
2023-07-03T18:09:51.357Z,29.33
2023-07-03T18:12:21.668Z,29.23
2023-07-03T18:14:51.586Z,29.16
2023-07-03T18:17:21.716Z,29.05
2023-07-03T18:19:51.616Z,28.94
2023-07-03T18:22:21.736Z,28.83
2023-07-03T18:24:52.477Z,28.75
2023-07-03T18:27:22.795Z,28.67
2023-07-03T18:29:52.678Z,28.58
2023-07-03T18:32:23.808Z,28.51
2023-07-03T18:34:53.979Z,28.44
2023-07-03T18:37:26.135Z,28.37
2023-07-03T18:39:56.684Z,28.31
2023-07-03T18:42:27.010Z,28.24
2023-07-03T18:44:57.113Z,28.17
2023-07-03T18:47:30.703Z,28.09
2023-07-03T18:50:01.244Z,28.02
2023-07-03T18:52:31.564Z,27.96
2023-07-03T18:55:01.471Z,27.88
2023-07-03T18:57:32.540Z,27.81
2023-07-03T19:00:04.180Z,27.73
2023-07-03T19:02:32.938Z,27.63
2023-07-03T19:05:06.336Z,27.54
2023-07-03T19:07:36.791Z,27.46
2023-07-03T19:10:17.827Z,27.37
2023-07-03T19:12:48.912Z,27.29
2023-07-03T19:15:19.996Z,27.21
2023-07-03T19:17:50.124Z,27.13
2023-07-03T19:20:21.520Z,27.05
2023-07-03T19:22:52.857Z,26.97
2023-07-03T19:25:22.575Z,26.89
2023-07-03T19:27:52.677Z,26.83
2023-07-03T19:30:22.827Z,26.74
2023-07-03T19:32:52.929Z,26.68
2023-07-03T19:35:23.056Z,26.59
2023-07-03T19:37:54.388Z,26.53
2023-07-03T19:40:25.117Z,26.44
2023-07-03T19:42:55.227Z,26.36
2023-07-03T19:45:25.181Z,26.28
2023-07-03T19:47:55.212Z,26.21
2023-07-03T19:50:25.425Z,26.14
2023-07-03T19:52:55.701Z,26.05
2023-07-03T19:55:27.878Z,25.99
2023-07-03T19:57:58.196Z,25.92
2023-07-03T20:00:28.209Z,25.84
2023-07-03T20:02:58.496Z,25.76
2023-07-03T20:05:28.548Z,25.70
2023-07-03T20:07:59.489Z,25.62
2023-07-03T20:10:29.337Z,25.53
2023-07-03T20:13:00.553Z,25.45
2023-07-03T20:15:32.099Z,25.38
2023-07-03T20:18:02.245Z,25.31
2023-07-03T20:20:32.378Z,25.24
2023-07-03T20:23:02.803Z,25.18
2023-07-03T20:25:32.783Z,25.11
2023-07-03T20:28:03.725Z,25.05
2023-07-03T20:30:33.474Z,24.98
2023-07-03T20:33:03.403Z,24.93
2023-07-03T20:35:33.455Z,24.87
2023-07-03T20:38:03.784Z,24.82
2023-07-03T20:40:33.552Z,24.76
2023-07-03T20:43:04.021Z,24.71
2023-07-03T20:45:34.970Z,24.66
2023-07-03T20:48:06.554Z,24.60
2023-07-03T20:50:42.364Z,24.55
2023-07-03T20:53:12.445Z,24.50
2023-07-03T20:55:44.259Z,24.46
2023-07-03T20:58:14.155Z,24.41
2023-07-03T21:00:44.269Z,24.37
2023-07-03T21:03:14.259Z,24.33
2023-07-03T21:05:44.714Z,24.30
2023-07-03T21:08:15.233Z,24.26
2023-07-03T21:10:45.472Z,24.22
2023-07-03T21:13:15.673Z,24.19
2023-07-03T21:15:46.538Z,24.14
2023-07-03T21:18:16.325Z,24.12
2023-07-03T21:20:46.826Z,24.09
2023-07-03T21:23:16.576Z,24.05
2023-07-03T21:25:48.326Z,24.01
2023-07-03T21:28:18.647Z,23.97
2023-07-03T21:30:48.585Z,23.94
2023-07-03T21:33:20.857Z,23.88
2023-07-03T21:35:52.693Z,23.82
2023-07-03T21:38:23.622Z,23.76
2023-07-03T21:40:54.966Z,23.69
2023-07-03T21:43:25.848Z,23.65
2023-07-03T21:46:03.207Z,23.61
2023-07-03T21:48:35.774Z,23.56
2023-07-03T21:51:07.325Z,23.53
2023-07-03T21:53:37.239Z,23.49
2023-07-03T21:56:10.019Z,23.43
2023-07-03T21:58:41.580Z,23.40
2023-07-03T22:01:19.068Z,23.36
2023-07-03T22:03:49.127Z,23.32
2023-07-03T22:06:19.269Z,23.28
2023-07-03T22:08:50.855Z,23.25
2023-07-03T22:11:20.977Z,23.22
2023-07-03T22:13:51.287Z,23.18
2023-07-03T22:16:22.042Z,23.13
2023-07-03T22:18:52.353Z,23.07
2023-07-03T22:21:22.583Z,23.03
2023-07-03T22:23:52.784Z,22.99
2023-07-03T22:26:22.668Z,22.95
2023-07-03T22:28:52.806Z,22.92
2023-07-03T22:31:24.974Z,22.88
2023-07-03T22:33:55.111Z,22.84
2023-07-03T22:36:25.431Z,22.82
2023-07-03T22:38:55.138Z,22.78
2023-07-03T22:41:25.455Z,22.74
2023-07-03T22:43:55.802Z,22.73
2023-07-03T22:46:26.350Z,22.69
2023-07-03T22:48:56.650Z,22.66
2023-07-03T22:51:26.962Z,22.64
2023-07-03T22:53:57.430Z,22.61
2023-07-03T22:56:28.425Z,22.59
2023-07-03T22:58:58.341Z,22.54
2023-07-03T23:01:28.662Z,22.53
2023-07-03T23:03:58.409Z,22.49
2023-07-03T23:06:28.277Z,22.47
2023-07-03T23:08:58.416Z,22.45
2023-07-03T23:11:28.656Z,22.43
2023-07-03T23:13:59.099Z,22.39
2023-07-03T23:16:29.421Z,22.38
2023-07-03T23:18:59.495Z,22.35
2023-07-03T23:21:29.623Z,22.33
2023-07-03T23:23:59.524Z,22.28
2023-07-03T23:26:29.478Z,22.26
2023-07-03T23:29:02.032Z,22.24
2023-07-03T23:31:32.049Z,22.20
2023-07-03T23:34:02.390Z,22.18
2023-07-03T23:36:34.013Z,22.15
2023-07-03T23:39:02.897Z,22.12
2023-07-03T23:41:33.266Z,22.08
2023-07-03T23:44:03.264Z,22.06
2023-07-03T23:46:33.277Z,22.04
2023-07-03T23:49:03.379Z,22.00
2023-07-03T23:51:33.294Z,21.98
2023-07-03T23:54:03.608Z,21.96
2023-07-03T23:56:33.242Z,21.92
2023-07-03T23:59:04.382Z,21.90
